createdAt,value
2023-08-05T00:02:49.880Z,16.34
2023-08-05T00:07:55.103Z,16.36
2023-08-05T00:12:58.863Z,16.27
2023-08-05T00:18:02.719Z,16.23
2023-08-05T00:23:07.892Z,16.17
2023-08-05T00:28:11.620Z,16.14
2023-08-05T00:33:15.987Z,16.08
2023-08-05T00:38:21.243Z,16.08
2023-08-05T00:43:25.071Z,16.05
2023-08-05T00:48:28.913Z,15.98
2023-08-05T00:53:36.084Z,15.94
2023-08-05T00:58:40.007Z,15.87
2023-08-05T01:03:43.845Z,15.85
2023-08-05T01:08:50.289Z,15.80
2023-08-05T01:13:54.045Z,15.74
2023-08-05T01:19:00.036Z,15.73
2023-08-05T01:24:15.034Z,15.66
2023-08-05T01:29:20.204Z,15.55
2023-08-05T01:34:24.393Z,15.59
2023-08-05T01:39:28.238Z,15.57
2023-08-05T01:44:33.394Z,15.42
2023-08-05T01:49:38.037Z,15.41
2023-08-05T01:54:41.780Z,15.42
2023-08-05T01:59:46.860Z,15.15
2023-08-05T02:04:50.672Z,15.00
2023-08-05T02:09:54.405Z,15.03
2023-08-05T02:14:59.487Z,15.16
2023-08-05T02:20:05.274Z,15.28
2023-08-05T02:25:09.758Z,15.31
2023-08-05T02:30:14.855Z,15.31
2023-08-05T02:35:18.635Z,15.22
2023-08-05T02:40:22.382Z,15.18
2023-08-05T02:45:27.521Z,15.21
2023-08-05T02:50:32.197Z,15.18
2023-08-05T02:55:36.095Z,15.15
2023-08-05T03:00:42.043Z,15.06
2023-08-05T03:05:46.422Z,15.03
2023-08-05T03:10:58.388Z,15.03
2023-08-05T03:16:11.852Z,15.02
2023-08-05T03:21:16.151Z,14.92
2023-08-05T03:26:19.959Z,14.89
2023-08-05T03:31:25.555Z,14.84
2023-08-05T03:36:30.187Z,14.82
2023-08-05T03:41:35.080Z,14.80
2023-08-05T03:46:40.358Z,14.79
2023-08-05T03:51:44.147Z,14.79
2023-08-05T03:56:48.341Z,14.78
2023-08-05T04:01:56.285Z,14.76
2023-08-05T04:07:00.016Z,14.74
2023-08-05T04:12:06.445Z,14.75
2023-08-05T04:17:13.382Z,14.74
2023-08-05T04:22:20.622Z,14.68
2023-08-05T04:27:25.749Z,14.68
2023-08-05T04:32:30.894Z,14.69
2023-08-05T04:37:34.738Z,14.71
2023-08-05T04:42:38.521Z,14.65
2023-08-05T04:47:43.746Z,14.63
2023-08-05T04:52:47.802Z,14.65
2023-08-05T04:57:54.409Z,14.58
2023-08-05T05:02:59.621Z,14.64
2023-08-05T05:08:03.543Z,14.66
2023-08-05T05:13:07.311Z,14.67
2023-08-05T05:18:12.435Z,14.64
2023-08-05T05:23:16.313Z,14.68
2023-08-05T05:28:20.078Z,14.69
2023-08-05T05:33:25.165Z,14.76
2023-08-05T05:38:28.919Z,14.80
2023-08-05T05:43:32.656Z,14.79
2023-08-05T05:48:37.804Z,14.86
2023-08-05T05:53:41.541Z,14.80
2023-08-05T05:58:45.401Z,14.90
2023-08-05T06:03:51.362Z,14.93
2023-08-05T06:08:55.256Z,14.98
2023-08-05T06:13:59.157Z,15.04
2023-08-05T06:19:04.284Z,15.14
2023-08-05T06:24:08.109Z,15.19
2023-08-05T06:29:12.089Z,15.30
2023-08-05T06:34:17.251Z,15.40
2023-08-05T06:39:21.160Z,15.50
2023-08-05T06:44:24.902Z,15.60
2023-08-05T06:49:29.982Z,15.70
2023-08-05T06:54:33.819Z,15.71
2023-08-05T06:59:37.565Z,15.89
2023-08-05T07:04:42.761Z,16.05
2023-08-05T07:09:46.561Z,16.19
2023-08-05T07:14:50.357Z,16.21
2023-08-05T07:19:55.435Z,16.28
2023-08-05T07:24:59.147Z,16.28
2023-08-05T07:30:02.903Z,16.43
2023-08-05T07:35:09.673Z,16.41
2023-08-05T07:40:14.231Z,16.64
2023-08-05T07:45:19.337Z,16.54
2023-08-05T07:50:25.687Z,16.84
2023-08-05T07:55:33.459Z,17.10
2023-08-05T08:00:37.302Z,17.09
2023-08-05T08:05:42.865Z,17.17
2023-08-05T08:10:47.365Z,17.29
2023-08-05T08:15:51.184Z,17.28
2023-08-05T08:20:56.347Z,17.51
2023-08-05T08:26:00.851Z,17.78
2023-08-05T08:31:04.797Z,17.80
2023-08-05T08:36:09.996Z,17.96
2023-08-05T08:41:13.832Z,18.03
2023-08-05T08:46:20.541Z,18.23
2023-08-05T08:51:25.958Z,18.10
2023-08-05T08:56:29.763Z,18.53
2023-08-05T09:01:33.879Z,18.71
2023-08-05T09:06:40.563Z,18.64
2023-08-05T09:11:44.295Z,18.55
2023-08-05T09:17:03.697Z,18.23
2023-08-05T09:22:09.099Z,18.21
2023-08-05T09:27:12.982Z,18.07
2023-08-05T09:32:22.551Z,17.89
2023-08-05T09:37:39.139Z,17.69
2023-08-05T09:42:43.707Z,17.66
2023-08-05T09:47:48.706Z,17.63
2023-08-05T09:52:58.251Z,17.75
2023-08-05T09:58:02.691Z,17.62
2023-08-05T10:03:09.446Z,17.49
2023-08-05T10:08:15.145Z,17.85
2023-08-05T10:13:21.691Z,18.18
2023-08-05T10:18:27.360Z,17.85
2023-08-05T10:23:34.918Z,17.96
2023-08-05T10:28:42.871Z,18.24
2023-08-05T10:34:11.453Z,18.46
2023-08-05T10:39:44.921Z,18.93
2023-08-05T10:44:51.375Z,19.00
2023-08-05T10:50:00.454Z,18.74
2023-08-05T10:55:13.602Z,18.51
2023-08-05T11:00:22.890Z,18.29
2023-08-05T11:05:26.955Z,18.19
2023-08-05T11:10:33.447Z,18.01
2023-08-05T11:15:41.912Z,17.99
2023-08-05T11:20:48.341Z,18.13
2023-08-05T11:25:53.865Z,18.19
2023-08-05T11:30:57.773Z,18.11
2023-08-05T11:36:01.595Z,17.84
2023-08-05T11:41:06.742Z,17.18
2023-08-05T11:46:25.282Z,17.13
2023-08-05T11:51:29.004Z,17.01
2023-08-05T11:56:34.775Z,17.02
2023-08-05T12:01:41.969Z,17.01
2023-08-05T12:06:48.389Z,17.06
2023-08-05T12:11:58.931Z,16.95
2023-08-05T12:17:02.783Z,16.94
2023-08-05T12:22:06.581Z,16.88
2023-08-05T12:27:11.719Z,16.78
2023-08-05T12:32:15.489Z,16.82
2023-08-05T12:37:19.542Z,16.85
2023-08-05T12:42:24.735Z,16.75
2023-08-05T12:47:28.978Z,16.77
2023-08-05T12:52:33.059Z,16.74
2023-08-05T12:57:38.162Z,16.69
2023-08-05T13:02:41.963Z,17.07
2023-08-05T13:07:45.755Z,17.26
2023-08-05T13:12:50.957Z,17.45
2023-08-05T13:17:54.854Z,17.34
2023-08-05T13:22:58.721Z,16.77
2023-08-05T13:28:03.913Z,16.87
2023-08-05T13:33:07.773Z,16.86
2023-08-05T13:38:11.542Z,16.96
2023-08-05T13:43:16.670Z,17.06
2023-08-05T13:48:20.557Z,17.03
2023-08-05T13:53:24.358Z,17.17
2023-08-05T13:58:29.616Z,16.92
2023-08-05T14:03:33.529Z,16.64
2023-08-05T14:08:37.398Z,16.38
2023-08-05T14:13:43.840Z,16.37
2023-08-05T14:18:47.620Z,16.32
2023-08-05T14:23:51.370Z,16.37
2023-08-05T14:28:56.480Z,16.56
2023-08-05T14:34:00.305Z,16.73
2023-08-05T14:39:05.704Z,16.88
2023-08-05T14:44:11.076Z,16.95
2023-08-05T14:49:14.986Z,17.06
2023-08-05T14:54:18.746Z,17.00
2023-08-05T14:59:23.873Z,16.95
2023-08-05T15:04:27.680Z,16.92
2023-08-05T15:09:31.437Z,16.88
2023-08-05T15:14:36.569Z,16.85
2023-08-05T15:19:40.337Z,16.97
2023-08-05T15:24:44.166Z,17.20
2023-08-05T15:29:58.298Z,17.13
2023-08-05T15:35:02.174Z,17.27
2023-08-05T15:40:07.078Z,17.97
2023-08-05T15:45:12.483Z,18.19
2023-08-05T15:50:19.407Z,18.42
2023-08-05T15:55:23.371Z,18.47
2023-08-05T16:00:28.558Z,18.71
2023-08-05T16:05:32.386Z,18.92
2023-08-05T16:10:36.146Z,18.27
2023-08-05T16:15:41.308Z,18.01
2023-08-05T16:20:45.168Z,18.08
2023-08-05T16:25:48.922Z,18.00
2023-08-05T16:30:55.111Z,18.00
2023-08-05T16:35:58.929Z,18.01
2023-08-05T16:41:03.067Z,17.94
2023-08-05T16:46:08.942Z,17.67
2023-08-05T16:51:12.728Z,17.71
2023-08-05T16:56:16.570Z,17.58
2023-08-05T17:01:21.980Z,17.51
2023-08-05T17:06:26.377Z,17.38
2023-08-05T17:11:30.241Z,17.23
2023-08-05T17:16:35.485Z,17.11
2023-08-05T17:21:39.271Z,17.27
2023-08-05T17:26:43.016Z,17.02
2023-08-05T17:31:48.168Z,16.92
2023-08-05T17:36:51.885Z,16.70
2023-08-05T17:41:55.662Z,16.56
2023-08-05T17:47:00.794Z,16.83
2023-08-05T17:52:05.134Z,16.94
2023-08-05T17:57:08.942Z,16.99
2023-08-05T18:02:14.050Z,16.96
2023-08-05T18:07:17.859Z,16.90
2023-08-05T18:12:21.623Z,16.72
2023-08-05T18:17:26.772Z,16.77
2023-08-05T18:22:30.546Z,16.76
2023-08-05T18:27:34.686Z,16.63
2023-08-05T18:32:39.892Z,16.38
2023-08-05T18:37:43.690Z,16.47
2023-08-05T18:42:47.499Z,16.44
2023-08-05T18:47:52.695Z,16.35
2023-08-05T18:52:56.408Z,16.31
2023-08-05T18:58:00.199Z,16.21
2023-08-05T19:03:05.327Z,15.99
2023-08-05T19:08:09.133Z,16.06
2023-08-05T19:13:12.925Z,16.10
2023-08-05T19:18:18.055Z,16.18
2023-08-05T19:23:21.817Z,16.19
2023-08-05T19:28:25.591Z,16.28
2023-08-05T19:33:30.700Z,16.31
2023-08-05T19:38:34.465Z,16.18
2023-08-05T19:43:38.773Z,16.17
2023-08-05T19:48:44.467Z,16.18
2023-08-05T19:53:48.479Z,16.10
2023-08-05T19:58:52.267Z,16.07
2023-08-05T20:03:57.358Z,16.07
2023-08-05T20:09:01.133Z,16.15
2023-08-05T20:14:04.951Z,16.20
2023-08-05T20:19:10.147Z,16.15
2023-08-05T20:24:17.594Z,16.07
2023-08-05T20:29:23.344Z,16.12
2023-08-05T20:34:30.232Z,16.06
2023-08-05T20:39:33.982Z,16.05
2023-08-05T20:44:37.757Z,15.88
2023-08-05T20:49:43.582Z,15.90
2023-08-05T20:54:47.530Z,15.80
2023-08-05T20:59:51.333Z,15.74
2023-08-05T21:04:57.123Z,15.83
2023-08-05T21:10:01.072Z,15.84
2023-08-05T21:15:05.493Z,15.84
2023-08-05T21:20:12.088Z,15.80
2023-08-05T21:25:16.050Z,15.81
2023-08-05T21:30:20.745Z,15.76
2023-08-05T21:35:25.871Z,15.67
2023-08-05T21:40:29.648Z,15.63
2023-08-05T21:45:33.381Z,15.58
2023-08-05T21:50:40.934Z,15.53
2023-08-05T21:55:46.358Z,15.67
2023-08-05T22:00:50.353Z,15.68
2023-08-05T22:05:55.457Z,15.45
2023-08-05T22:10:59.243Z,15.58
2023-08-05T22:16:03.212Z,15.64
2023-08-05T22:21:08.498Z,15.59
2023-08-05T22:26:12.378Z,15.68
2023-08-05T22:31:16.176Z,15.63
2023-08-05T22:36:21.308Z,15.59
2023-08-05T22:41:25.052Z,15.53
2023-08-05T22:46:28.778Z,15.54
2023-08-05T22:51:33.845Z,15.51
2023-08-05T22:56:37.544Z,15.57
2023-08-05T23:01:41.314Z,15.58
2023-08-05T23:06:46.522Z,15.57
2023-08-05T23:11:52.314Z,15.51
2023-08-05T23:16:56.519Z,15.46
2023-08-05T23:22:01.787Z,15.55
2023-08-05T23:27:06.449Z,15.46
2023-08-05T23:32:10.216Z,15.42
2023-08-05T23:37:15.306Z,15.48
2023-08-05T23:42:19.957Z,15.33
2023-08-05T23:47:23.829Z,15.44
2023-08-05T23:52:29.042Z,15.41
2023-08-05T23:57:33.383Z,15.42
